Time;durP1;ratioP1;P1;durP2;ratioP2;P2;SDS_P1;SDS_P2;PMS_P1;PMS_P2;Temp;Humidity;BMP_temperature;BMP_pressure;BME280_temperature;BME280_humidity;BME280_pressure;Samples;Min_cycle;Max_cycle;Signal;HPM_P1;HPM_P2
2023/05/22 00:00:17;;;;;;;0.30;0.22;;;;;;;;;;1028003;28;20023;-77
2023/05/22 00:00:47;;;;;;;0.57;0.57;;;;;;;;;;1027083;28;20054;-77
2023/05/22 00:01:21;;;;;;;0.80;0.30;;;;;;;;;;1027500;28;20053;-76
2023/05/22 00:01:54;;;;;;;2.60;0.73;;;;;;;;;;1027283;28;20037;-76
2023/05/22 00:02:25;;;;;;;0.30;0.30;;;;;;;;;;1027543;28;20026;-76
2023/05/22 00:02:56;;;;;;;2.22;0.40;;;;;;;;;;1026146;28;20129;-76
2023/05/22 00:03:28;;;;;;;1.45;0.55;;;;;;;;;;1025378;28;20023;-77
2023/05/22 00:03:58;;;;;;;0.73;0.55;;;;;;;;;;1026135;28;20630;-77
2023/05/22 00:04:30;;;;;;;0.25;0.20;;;;;;;;;;1026192;28;20113;-76
2023/05/22 00:05:01;;;;;;;0.05;0.05;;;;;;;;;;1027952;28;20070;-76
2023/05/22 00:05:33;;;;;;;0.00;0.00;;;;;;;;;;1023167;28;20062;-76
2023/05/22 00:06:05;;;;;;;0.45;0.45;;;;;;;;;;1027970;28;20037;-76
2023/05/22 00:06:35;;;;;;;0.05;0.05;;;;;;;;;;1027759;28;20027;-76
2023/05/22 00:07:06;;;;;;;0.30;0.05;;;;;;;;;;1027832;28;20481;-76
2023/05/22 00:07:37;;;;;;;0.10;0.10;;;;;;;;;;1029472;28;20390;-76
2023/05/22 00:08:11;;;;;;;0.25;0.25;;;;;;;;;;1029753;28;20034;-76
2023/05/22 00:08:42;;;;;;;0.70;0.68;;;;;;;;;;1029412;28;20027;-76
2023/05/22 00:09:12;;;;;;;0.80;0.73;;;;;;;;;;1029434;28;20410;-76
2023/05/22 00:09:43;;;;;;;0.50;0.47;;;;;;;;;;1028042;28;20034;-76
2023/05/22 00:10:13;;;;;;;0.38;0.38;;;;;;;;;;1028374;28;20030;-76
2023/05/22 00:10:44;;;;;;;0.63;0.63;;;;;;;;;;1027875;28;20510;-76
2023/05/22 00:11:14;;;;;;;1.55;0.25;;;;;;;;;;1031839;28;20023;-76
2023/05/22 00:11:45;;;;;;;2.63;1.00;;;;;;;;;;1031628;28;20027;-77
2023/05/22 00:12:15;;;;;;;0.38;0.38;;;;;;;;;;1031702;28;20029;-76
2023/05/22 00:12:46;;;;;;;3.08;0.80;;;;;;;;;;1027633;28;20027;-76
2023/05/22 00:13:16;;;;;;;0.20;0.20;;;;;;;;;;1025298;28;20031;-76
2023/05/22 00:13:47;;;;;;;0.55;0.55;;;;;;;;;;1025550;28;20023;-76
2023/05/22 00:14:17;;;;;;;0.90;0.70;;;;;;;;;;1025974;28;20111;-76
2023/05/22 00:14:48;;;;;;;1.27;1.17;;;;;;;;;;1033741;28;20081;-76
2023/05/22 00:15:18;;;;;;;1.08;0.43;;;;;;;;;;1027707;28;20026;-76
2023/05/22 00:15:49;;;;;;;0.75;0.68;;;;;;;;;;1027843;28;20026;-76
2023/05/22 00:16:19;;;;;;;1.40;0.32;;;;;;;;;;1027984;28;20035;-76
2023/05/22 00:16:50;;;;;;;0.20;0.20;;;;;;;;;;1027711;28;20023;-76
2023/05/22 00:17:20;;;;;;;0.80;0.30;;;;;;;;;;1028203;28;20074;-76
2023/05/22 00:17:52;;;;;;;0.38;0.35;;;;;;;;;;1028061;28;20049;-76
2023/05/22 00:18:24;;;;;;;0.85;0.85;;;;;;;;;;1027947;28;20039;-76
2023/05/22 00:18:56;;;;;;;0.90;0.52;;;;;;;;;;1027949;28;20050;-77
2023/05/22 00:19:29;;;;;;;0.30;0.30;;;;;;;;;;1027723;28;20029;-76
2023/05/22 00:20:09;;;;;;;0.68;0.68;;;;;;;;;;1027619;28;20442;-76
2023/05/22 00:20:41;;;;;;;1.38;1.27;;;;;;;;;;1027237;28;20419;-76
2023/05/22 00:21:11;;;;;;;0.35;0.25;;;;;;;;;;1025617;28;20582;-76
2023/05/22 00:21:42;;;;;;;0.30;0.30;;;;;;;;;;1027697;28;20034;-76
2023/05/22 00:22:12;;;;;;;0.10;0.10;;;;;;;;;;1028031;28;20054;-76
2023/05/22 00:22:43;;;;;;;0.43;0.43;;;;;;;;;;1027640;28;20027;-76
2023/05/22 00:23:14;;;;;;;1.08;0.47;;;;;;;;;;1028121;28;20019;-76
2023/05/22 00:23:44;;;;;;;1.38;0.73;;;;;;;;;;1027883;28;20375;-77
2023/05/22 00:24:15;;;;;;;0.00;0.00;;;;;;;;;;1028232;28;20045;-77
2023/05/22 00:24:45;;;;;;;1.80;0.98;;;;;;;;;;1027985;28;20033;-76
2023/05/22 00:25:17;;;;;;;2.75;2.53;;;;;;;;;;1028193;28;20033;-76
2023/05/22 00:25:49;;;;;;;1.15;1.05;;;;;;;;;;1027306;28;20578;-76
2023/05/22 00:26:22;;;;;;;2.65;1.85;;;;;;;;;;1028124;28;20023;-76
2023/05/22 00:26:52;;;;;;;0.38;0.38;;;;;;;;;;1027951;28;20037;-76
2023/05/22 00:27:23;;;;;;;2.70;0.82;;;;;;;;;;1027625;28;20030;-76
2023/05/22 00:27:53;;;;;;;0.35;0.35;;;;;;;;;;1028081;28;20018;-76
2023/05/22 00:28:23;;;;;;;0.08;0.08;;;;;;;;;;1028389;28;20519;-76
2023/05/22 00:28:54;;;;;;;2.40;1.00;;;;;;;;;;1027591;28;20070;-76
2023/05/22 00:29:24;;;;;;;0.52;0.40;;;;;;;;;;1027637;28;20070;-76
2023/05/22 00:29:55;;;;;;;0.52;0.52;;;;;;;;;;1027740;28;20712;-76
2023/05/22 00:30:25;;;;;;;0.52;0.52;;;;;;;;;;1027745;28;20461;-76
2023/05/22 00:30:56;;;;;;;1.08;1.02;;;;;;;;;;1030707;28;20385;-76
2023/05/22 00:31:26;;;;;;;1.38;0.57;;;;;;;;;;1027619;28;20049;-76
2023/05/22 00:31:57;;;;;;;0.25;0.25;;;;;;;;;;1027827;28;20753;-76
2023/05/22 00:32:27;;;;;;;0.63;0.60;;;;;;;;;;1027920;28;20072;-77
2023/05/22 00:32:58;;;;;;;1.02;0.85;;;;;;;;;;1027314;28;20062;-76
2023/05/22 00:33:28;;;;;;;0.47;0.30;;;;;;;;;;1027374;28;20110;-76
2023/05/22 00:33:59;;;;;;;2.97;0.20;;;;;;;;;;1028164;28;20101;-77
2023/05/22 00:34:29;;;;;;;0.00;0.00;;;;;;;;;;1027917;28;20045;-76
2023/05/22 00:35:00;;;;;;;0.40;0.40;;;;;;;;;;1028183;28;20037;-76
2023/05/22 00:35:30;;;;;;;0.38;0.38;;;;;;;;;;1027915;28;20035;-76
2023/05/22 00:36:00;;;;;;;1.17;0.52;;;;;;;;;;1028049;28;20054;-76
2023/05/22 00:36:31;;;;;;;0.10;0.10;;;;;;;;;;1027987;28;20117;-76
2023/05/22 00:37:01;;;;;;;1.65;1.17;;;;;;;;;;1028237;28;20026;-76
2023/05/22 00:37:32;;;;;;;0.30;0.30;;;;;;;;;;1027912;28;20117;-76
2023/05/22 00:38:04;;;;;;;2.17;0.57;;;;;;;;;;1028214;28;20030;-77
2023/05/22 00:38:35;;;;;;;0.15;0.08;;;;;;;;;;1027546;28;20022;-76
2023/05/22 00:39:05;;;;;;;0.75;0.45;;;;;;;;;;1027130;28;20176;-76
2023/05/22 00:39:37;;;;;;;0.17;0.17;;;;;;;;;;1027673;28;20116;-76
2023/05/22 00:40:07;;;;;;;0.57;0.57;;;;;;;;;;1026395;28;20031;-76
2023/05/22 00:40:38;;;;;;;0.60;0.60;;;;;;;;;;1027573;28;20026;-76
2023/05/22 00:41:08;;;;;;;10.57;1.00;;;;;;;;;;1027697;28;20406;-76
2023/05/22 00:41:39;;;;;;;0.28;0.28;;;;;;;;;;1027856;28;20026;-77
2023/05/22 00:42:09;;;;;;;1.48;1.13;;;;;;;;;;1028846;28;20030;-76
2023/05/22 00:42:43;;;;;;;0.45;0.45;;;;;;;;;;1027580;28;20108;-76
2023/05/22 00:43:16;;;;;;;0.47;0.40;;;;;;;;;;1027398;28;20030;-76
2023/05/22 00:43:46;;;;;;;3.60;0.40;;;;;;;;;;1027347;28;20025;-76
2023/05/22 00:44:17;;;;;;;0.45;0.40;;;;;;;;;;1027630;28;20025;-76
2023/05/22 00:44:47;;;;;;;1.00;0.45;;;;;;;;;;1027424;28;20079;-76
2023/05/22 00:45:18;;;;;;;0.50;0.45;;;;;;;;;;1030976;28;20022;-76
2023/05/22 00:45:48;;;;;;;1.02;0.95;;;;;;;;;;1031127;28;20030;-76
2023/05/22 00:46:23;;;;;;;0.10;0.10;;;;;;;;;;1030851;28;20026;-76
2023/05/22 00:46:53;;;;;;;0.00;0.00;;;;;;;;;;1030561;28;20092;-76
2023/05/22 00:47:25;;;;;;;0.50;0.47;;;;;;;;;;1027863;28;20492;-76
2023/05/22 00:47:56;;;;;;;0.40;0.32;;;;;;;;;;1028012;28;20517;-76
2023/05/22 00:48:26;;;;;;;2.45;0.95;;;;;;;;;;1027909;28;20029;-76
2023/05/22 00:48:57;;;;;;;0.15;0.10;;;;;;;;;;1027751;28;20109;-76
2023/05/22 00:49:27;;;;;;;0.60;0.32;;;;;;;;;;1027720;28;20038;-76
2023/05/22 00:49:58;;;;;;;0.30;0.30;;;;;;;;;;1026877;28;20033;-76
2023/05/22 00:50:28;;;;;;;0.20;0.20;;;;;;;;;;1026301;28;20409;-76
2023/05/22 00:50:59;;;;;;;1.20;0.80;;;;;;;;;;1027154;28;20015;-76
2023/05/22 00:51:30;;;;;;;0.30;0.30;;;;;;;;;;1025262;28;20521;-76
2023/05/22 00:52:01;;;;;;;2.25;1.13;;;;;;;;;;1025327;28;20022;-76
2023/05/22 00:52:33;;;;;;;2.75;1.17;;;;;;;;;;1029096;28;20041;-76
2023/05/22 00:53:03;;;;;;;0.08;0.08;;;;;;;;;;1027308;28;20031;-77
2023/05/22 00:53:34;;;;;;;0.60;0.40;;;;;;;;;;1027861;28;20027;-77
2023/05/22 00:54:05;;;;;;;0.98;0.55;;;;;;;;;;1029232;28;20093;-76
2023/05/22 00:54:35;;;;;;;1.17;0.98;;;;;;;;;;1029465;28;20081;-76
2023/05/22 00:55:07;;;;;;;0.77;0.77;;;;;;;;;;1028299;28;20015;-77
2023/05/22 00:55:38;;;;;;;0.82;0.82;;;;;;;;;;1025725;28;20022;-76
2023/05/22 00:56:09;;;;;;;0.55;0.55;;;;;;;;;;1027449;28;20035;-77
2023/05/22 00:56:40;;;;;;;0.10;0.10;;;;;;;;;;1027520;28;20027;-77
2023/05/22 00:57:11;;;;;;;0.28;0.28;;;;;;;;;;1027190;28;20022;-77
2023/05/22 00:57:42;;;;;;;0.93;0.77;;;;;;;;;;1027688;28;20565;-76
2023/05/22 00:58:14;;;;;;;1.20;1.10;;;;;;;;;;1031442;28;20034;-76
2023/05/22 00:58:45;;;;;;;3.25;0.90;;;;;;;;;;1031369;28;20058;-76
2023/05/22 00:59:16;;;;;;;1.45;0.85;;;;;;;;;;1031134;28;20390;-76
2023/05/22 00:59:47;;;;;;;2.10;0.55;;;;;;;;;;1027191;28;20031;-76
2023/05/22 01:00:18;;;;;;;1.83;1.65;;;;;;;;;;1027590;28;20023;-76
2023/05/22 01:00:49;;;;;;;0.57;0.57;;;;;;;;;;1027459;28;20030;-76
2023/05/22 01:01:19;;;;;;;0.70;0.63;;;;;;;;;;1025997;28;20476;-76
2023/05/22 01:01:50;;;;;;;0.60;0.60;;;;;;;;;;1026588;28;20018;-76
2023/05/22 01:02:20;;;;;;;0.70;0.70;;;;;;;;;;1030426;28;20041;-76
2023/05/22 01:02:51;;;;;;;0.80;0.80;;;;;;;;;;1028782;28;20026;-76
2023/05/22 01:03:24;;;;;;;1.27;1.17;;;;;;;;;;1027828;28;20501;-76
2023/05/22 01:03:55;;;;;;;3.63;1.15;;;;;;;;;;1028416;28;20022;-76
2023/05/22 01:04:26;;;;;;;0.82;0.68;;;;;;;;;;1026392;28;20105;-76
2023/05/22 01:04:57;;;;;;;0.60;0.60;;;;;;;;;;1027135;28;20074;-76
2023/05/22 01:05:27;;;;;;;5.28;1.80;;;;;;;;;;1027645;28;20023;-77
2023/05/22 01:05:58;;;;;;;0.20;0.20;;;;;;;;;;1027911;28;20030;-76
2023/05/22 01:06:30;;;;;;;3.10;1.50;;;;;;;;;;1027612;28;20383;-76
2023/05/22 01:07:01;;;;;;;1.30;1.20;;;;;;;;;;1029994;28;20022;-76
2023/05/22 01:07:33;;;;;;;0.40;0.40;;;;;;;;;;1030146;28;20537;-76
2023/05/22 01:08:05;;;;;;;0.20;0.20;;;;;;;;;;1028985;28;20046;-76
2023/05/22 01:08:36;;;;;;;0.32;0.32;;;;;;;;;;1025940;28;20023;-76
2023/05/22 01:09:06;;;;;;;0.80;0.80;;;;;;;;;;1027360;28;20582;-76
2023/05/22 01:09:37;;;;;;;0.30;0.30;;;;;;;;;;1025228;28;20015;-76
2023/05/22 01:10:08;;;;;;;1.55;0.65;;;;;;;;;;1026068;28;20023;-77
2023/05/22 01:10:39;;;;;;;0.40;0.30;;;;;;;;;;1023977;28;20507;-77
2023/05/22 01:11:23;;;;;;;0.13;0.13;;;;;;;;;;1023931;28;20035;-76
2023/05/22 01:12:03;;;;;;;0.95;0.95;;;;;;;;;;1023740;28;20453;-76
2023/05/22 01:12:45;;;;;;;1.95;0.85;;;;;;;;;;1022883;29;20019;-77
2023/05/22 01:13:25;;;;;;;3.30;0.63;;;;;;;;;;1038124;23;20058;-76
2023/05/22 01:13:55;;;;;;;1.27;1.05;;;;;;;;;;1032195;28;20036;-76
2023/05/22 01:14:35;;;;;;;3.92;0.75;;;;;;;;;;1031284;28;20041;-76
2023/05/22 01:15:05;;;;;;;;;;;;;;;;;;1031274;28;20034;-76
2023/05/22 01:15:40;;;;;;;1.60;1.50;;;;;;;;;;1032037;28;20354;-76
2023/05/22 01:16:29;;;;;;;4.68;0.70;;;;;;;;;;1034253;28;20033;-76
2023/05/22 01:17:15;;;;;;;0.28;0.22;;;;;;;;;;1029612;28;20503;-77
2023/05/22 01:17:51;;;;;;;0.47;0.17;;;;;;;;;;1028873;28;20068;-76
2023/05/22 01:18:23;;;;;;;0.95;0.90;;;;;;;;;;1024326;28;20020;-77
2023/05/22 01:18:57;;;;;;;1.38;0.93;;;;;;;;;;1030001;28;20402;-76
2023/05/22 01:19:46;;;;;;;1.70;0.57;;;;;;;;;;1028709;28;20116;-77
2023/05/22 01:20:19;;;;;;;1.42;0.80;;;;;;;;;;1027065;28;20029;-76
2023/05/22 01:21:01;;;;;;;0.73;0.52;;;;;;;;;;1027310;28;20057;-76
2023/05/22 01:21:34;;;;;;;0.43;0.43;;;;;;;;;;1026734;28;20082;-77
2023/05/22 01:22:20;;;;;;;0.63;0.63;;;;;;;;;;1028103;28;20442;-76
2023/05/22 01:22:57;;;;;;;0.88;0.55;;;;;;;;;;1029806;28;20077;-76
2023/05/22 01:23:46;;;;;;;8.73;0.57;;;;;;;;;;1028657;28;20061;-76
2023/05/22 01:24:24;;;;;;;0.20;0.20;;;;;;;;;;1029349;28;20037;-76
2023/05/22 01:25:33;;;;;;;1.02;0.47;;;;;;;;;;1029011;28;20030;-77
2023/05/22 01:26:22;;;;;;;1.30;0.47;;;;;;;;;;1016321;29;20024;-77
2023/05/22 01:26:58;;;;;;;1.52;0.88;;;;;;;;;;1018315;29;20031;-76
2023/05/22 01:27:37;;;;;;;0.20;0.20;;;;;;;;;;1021652;29;20054;-75
2023/05/22 01:28:23;;;;;;;0.60;0.40;;;;;;;;;;1017553;29;20092;-76
2023/05/22 01:29:03;;;;;;;4.07;2.80;;;;;;;;;;1015860;29;20035;-76
2023/05/22 01:29:46;;;;;;;0.80;0.80;;;;;;;;;;1014501;29;20039;-76
2023/05/22 01:30:32;;;;;;;0.22;0.22;;;;;;;;;;1017141;29;20523;-76
2023/05/22 01:31:11;;;;;;;0.15;0.15;;;;;;;;;;1016087;29;21289;-76
2023/05/22 01:31:42;;;;;;;0.55;0.55;;;;;;;;;;1018233;29;20027;-76
2023/05/22 01:32:19;;;;;;;1.40;1.25;;;;;;;;;;1024883;28;20042;-76
2023/05/22 01:32:51;;;;;;;0.20;0.20;;;;;;;;;;1029418;28;20413;-76
2023/05/22 01:33:25;;;;;;;0.75;0.75;;;;;;;;;;1023404;28;20035;-76
2023/05/22 01:33:56;;;;;;;0.30;0.30;;;;;;;;;;1030252;28;20452;-77
2023/05/22 01:34:27;;;;;;;1.27;1.17;;;;;;;;;;1026887;28;20121;-76
2023/05/22 01:35:00;;;;;;;1.30;0.60;;;;;;;;;;1028553;28;20096;-76
2023/05/22 01:35:32;;;;;;;3.63;1.35;;;;;;;;;;1023030;28;20037;-76
2023/05/22 01:36:04;;;;;;;1.02;0.98;;;;;;;;;;1024935;28;20509;-77
2023/05/22 01:36:36;;;;;;;0.28;0.28;;;;;;;;;;1024258;28;20154;-76
2023/05/22 01:37:07;;;;;;;0.52;0.52;;;;;;;;;;1028368;28;20113;-76
2023/05/22 01:37:38;;;;;;;4.53;1.17;;;;;;;;;;1026290;28;20037;-76
2023/05/22 01:38:09;;;;;;;10.88;0.90;;;;;;;;;;1027603;28;20045;-76
2023/05/22 01:38:41;;;;;;;4.28;1.73;;;;;;;;;;1029949;28;20116;-76
2023/05/22 01:39:13;;;;;;;3.95;1.45;;;;;;;;;;1024828;28;20065;-76
2023/05/22 01:39:44;;;;;;;0.98;0.98;;;;;;;;;;1025647;28;20038;-76
2023/05/22 01:40:15;;;;;;;3.88;1.05;;;;;;;;;;1026631;28;20030;-77
2023/05/22 01:40:45;;;;;;;4.88;1.05;;;;;;;;;;1025725;28;20587;-76
2023/05/22 01:41:16;;;;;;;1.48;1.38;;;;;;;;;;1027453;28;20618;-76
2023/05/22 01:41:47;;;;;;;1.08;0.98;;;;;;;;;;1026869;28;20622;-77
2023/05/22 01:42:18;;;;;;;2.10;1.83;;;;;;;;;;1029036;28;20038;-77
2023/05/22 01:42:48;;;;;;;0.55;0.32;;;;;;;;;;1030038;28;20034;-77
2023/05/22 01:43:19;;;;;;;1.90;0.63;;;;;;;;;;1023965;28;20109;-76
2023/05/22 01:43:49;;;;;;;3.63;2.25;;;;;;;;;;1019608;29;20170;-76
2023/05/22 01:44:20;;;;;;;0.68;0.17;;;;;;;;;;1021465;28;20399;-76
2023/05/22 01:44:50;;;;;;;3.15;1.55;;;;;;;;;;1023568;28;20499;-77
2023/05/22 01:45:21;;;;;;;1.65;1.55;;;;;;;;;;1026482;28;20019;-76
2023/05/22 01:45:52;;;;;;;0.75;0.65;;;;;;;;;;1027724;28;20049;-76
2023/05/22 01:46:26;;;;;;;3.90;0.30;;;;;;;;;;1029770;28;20088;-77
2023/05/22 01:46:59;;;;;;;1.70;1.13;;;;;;;;;;1025858;28;20035;-76
2023/05/22 01:47:30;;;;;;;18.30;1.48;;;;;;;;;;1028586;28;20497;-76
2023/05/22 01:48:00;;;;;;;1.08;0.70;;;;;;;;;;1028363;28;20030;-76
2023/05/22 01:48:31;;;;;;;1.08;0.85;;;;;;;;;;1026590;28;20177;-76
2023/05/22 01:49:02;;;;;;;2.38;1.75;;;;;;;;;;1027297;28;20078;-77
2023/05/22 01:49:33;;;;;;;1.08;0.98;;;;;;;;;;1027542;28;20034;-77
2023/05/22 01:50:04;;;;;;;6.40;1.52;;;;;;;;;;1025431;28;20054;-77
2023/05/22 01:50:35;;;;;;;2.17;1.98;;;;;;;;;;1025569;28;20027;-76
2023/05/22 01:51:12;;;;;;;1.92;0.93;;;;;;;;;;1019835;28;20074;-77
2023/05/22 01:51:43;;;;;;;3.00;1.65;;;;;;;;;;1023700;28;20038;-77
2023/05/22 01:52:25;;;;;;;0.55;0.55;;;;;;;;;;1020549;28;20074;-77
2023/05/22 01:53:01;;;;;;;2.75;2.38;;;;;;;;;;1022582;28;20041;-77
2023/05/22 01:53:54;;;;;;;1.02;0.77;;;;;;;;;;1023193;28;20828;-76
2023/05/22 01:54:25;;;;;;;0.38;0.38;;;;;;;;;;1022576;28;20031;-77
2023/05/22 01:55:02;;;;;;;0.88;0.75;;;;;;;;;;1027574;28;20120;-77
2023/05/22 01:55:45;;;;;;;1.17;0.75;;;;;;;;;;1027213;28;20034;-77
2023/05/22 01:56:19;;;;;;;5.55;1.50;;;;;;;;;;1026110;28;20607;-77
2023/05/22 01:57:02;;;;;;;1.52;0.80;;;;;;;;;;1027429;28;20032;-77
2023/05/22 01:57:42;;;;;;;2.30;1.65;;;;;;;;;;1025648;28;20096;-77
2023/05/22 01:58:20;;;;;;;0.52;0.52;;;;;;;;;;1025145;28;20262;-77
2023/05/22 01:59:03;;;;;;;0.95;0.88;;;;;;;;;;1025042;28;20459;-77
2023/05/22 01:59:40;;;;;;;0.95;0.93;;;;;;;;;;1028012;28;20483;-77
2023/05/22 02:00:15;;;;;;;0.98;0.52;;;;;;;;;;1024318;28;20354;-77
2023/05/22 02:00:46;;;;;;;0.65;0.47;;;;;;;;;;1026281;28;20489;-77
2023/05/22 02:01:18;;;;;;;1.90;0.65;;;;;;;;;;1028463;28;20058;-77
2023/05/22 02:01:50;;;;;;;1.48;1.17;;;;;;;;;;1029499;28;20080;-77
2023/05/22 02:02:22;;;;;;;1.80;1.50;;;;;;;;;;1028224;28;20085;-77
2023/05/22 02:02:56;;;;;;;0.25;0.25;;;;;;;;;;1029636;28;20088;-77
2023/05/22 02:03:30;;;;;;;3.28;2.47;;;;;;;;;;1026930;28;20035;-77
2023/05/22 02:04:01;;;;;;;2.13;1.50;;;;;;;;;;1030642;28;20417;-77
2023/05/22 02:04:34;;;;;;;1.60;1.15;;;;;;;;;;1026634;28;20022;-77
2023/05/22 02:05:05;;;;;;;2.70;1.80;;;;;;;;;;1023181;28;20085;-77
2023/05/22 02:05:37;;;;;;;1.52;1.15;;;;;;;;;;1022300;28;20031;-77
2023/05/22 02:06:12;;;;;;;3.10;1.15;;;;;;;;;;1024211;28;20511;-77
2023/05/22 02:06:43;;;;;;;0.65;0.38;;;;;;;;;;1026277;28;20336;-77
2023/05/22 02:07:14;;;;;;;1.55;0.93;;;;;;;;;;1029102;28;20390;-77
2023/05/22 02:07:46;;;;;;;0.00;0.00;;;;;;;;;;1028437;28;20117;-77
2023/05/22 02:08:17;;;;;;;0.93;0.85;;;;;;;;;;1027046;28;20038;-77
2023/05/22 02:08:48;;;;;;;0.55;0.55;;;;;;;;;;1025535;28;20033;-77
2023/05/22 02:09:19;;;;;;;2.70;1.45;;;;;;;;;;1026299;28;20458;-77
2023/05/22 02:09:50;;;;;;;3.65;1.88;;;;;;;;;;1026205;28;20027;-77
2023/05/22 02:10:21;;;;;;;1.25;0.88;;;;;;;;;;1026092;28;20403;-77
2023/05/22 02:10:54;;;;;;;5.07;2.72;;;;;;;;;;1023000;28;20031;-77
2023/05/22 02:11:26;;;;;;;6.28;1.40;;;;;;;;;;1023796;28;20508;-77
2023/05/22 02:11:58;;;;;;;1.98;1.48;;;;;;;;;;1022169;28;20097;-78
2023/05/22 02:12:28;;;;;;;0.80;0.80;;;;;;;;;;1022756;28;20082;-78
2023/05/22 02:12:59;;;;;;;4.57;0.90;;;;;;;;;;1027169;28;20488;-78
2023/05/22 02:13:30;;;;;;;2.35;0.77;;;;;;;;;;1026324;28;20549;-77
2023/05/22 02:14:01;;;;;;;4.72;2.03;;;;;;;;;;1027855;28;20026;-78
2023/05/22 02:14:31;;;;;;;2.40;1.33;;;;;;;;;;1026891;28;20121;-77
2023/05/22 02:15:02;;;;;;;0.55;0.55;;;;;;;;;;1026129;28;20045;-77
2023/05/22 02:15:32;;;;;;;1.58;1.48;;;;;;;;;;1026210;28;20027;-77
2023/05/22 02:16:03;;;;;;;0.73;0.73;;;;;;;;;;1028831;28;20027;-78
2023/05/22 02:16:34;;;;;;;0.82;0.35;;;;;;;;;;1028998;28;20022;-78
2023/05/22 02:17:07;;;;;;;3.40;1.27;;;;;;;;;;1028158;28;20022;-77
2023/05/22 02:17:39;;;;;;;0.55;0.30;;;;;;;;;;1025900;28;20433;-77
2023/05/22 02:18:12;;;;;;;1.60;0.68;;;;;;;;;;1027800;28;20037;-77
2023/05/22 02:18:44;;;;;;;0.38;0.38;;;;;;;;;;1026990;28;20030;-77
2023/05/22 02:19:14;;;;;;;1.55;1.45;;;;;;;;;;1026484;28;20019;-77
2023/05/22 02:19:45;;;;;;;0.38;0.38;;;;;;;;;;1026754;28;20092;-77
2023/05/22 02:20:15;;;;;;;0.80;0.47;;;;;;;;;;1025388;28;20030;-77
2023/05/22 02:20:46;;;;;;;1.23;0.63;;;;;;;;;;1026493;28;20034;-77
2023/05/22 02:21:16;;;;;;;1.50;0.50;;;;;;;;;;1025564;28;20400;-77
2023/05/22 02:21:47;;;;;;;0.45;0.45;;;;;;;;;;1023789;28;20104;-77
2023/05/22 02:22:17;;;;;;;1.75;1.55;;;;;;;;;;1022550;28;20027;-76
2023/05/22 02:22:48;;;;;;;1.70;0.85;;;;;;;;;;1022435;28;20090;-77
2023/05/22 02:23:18;;;;;;;0.68;0.50;;;;;;;;;;1026211;28;20082;-77
2023/05/22 02:23:49;;;;;;;0.55;0.55;;;;;;;;;;1024748;28;20037;-77
2023/05/22 02:24:22;;;;;;;0.63;0.47;;;;;;;;;;1027191;28;20081;-77
2023/05/22 02:24:53;;;;;;;0.50;0.50;;;;;;;;;;1026930;28;20026;-77
2023/05/22 02:25:23;;;;;;;2.53;0.82;;;;;;;;;;1023166;28;20521;-76
2023/05/22 02:25:54;;;;;;;2.08;0.95;;;;;;;;;;1023404;28;20023;-77
2023/05/22 02:26:25;;;;;;;1.92;1.33;;;;;;;;;;1022437;28;20256;-77
2023/05/22 02:26:55;;;;;;;0.50;0.50;;;;;;;;;;1019140;28;20028;-77
2023/05/22 02:27:26;;;;;;;0.40;0.40;;;;;;;;;;1023657;28;20027;-76
2023/05/22 02:27:56;;;;;;;1.35;1.00;;;;;;;;;;1021991;28;20756;-77
2023/05/22 02:28:27;;;;;;;0.98;0.82;;;;;;;;;;1024120;28;20069;-77
2023/05/22 02:28:57;;;;;;;1.90;1.80;;;;;;;;;;1025738;28;20023;-77
2023/05/22 02:29:28;;;;;;;1.08;0.57;;;;;;;;;;1027577;28;20131;-77
2023/05/22 02:29:58;;;;;;;1.85;0.70;;;;;;;;;;1024245;28;20035;-77
2023/05/22 02:30:29;;;;;;;0.50;0.50;;;;;;;;;;1028669;28;20513;-77
2023/05/22 02:31:02;;;;;;;1.77;1.67;;;;;;;;;;1028188;28;20120;-77
2023/05/22 02:31:32;;;;;;;1.38;0.68;;;;;;;;;;1026131;28;20495;-77
2023/05/22 02:32:03;;;;;;;0.45;0.30;;;;;;;;;;1028922;28;20021;-77
2023/05/22 02:32:34;;;;;;;0.30;0.30;;;;;;;;;;1024380;28;20031;-77
2023/05/22 02:33:05;;;;;;;1.70;1.05;;;;;;;;;;1026190;28;20080;-77
2023/05/22 02:33:35;;;;;;;0.63;0.63;;;;;;;;;;1023185;28;20202;-78
2023/05/22 02:34:06;;;;;;;0.63;0.60;;;;;;;;;;1021959;28;20062;-77
2023/05/22 02:34:36;;;;;;;0.80;0.75;;;;;;;;;;1017362;28;20063;-78
2023/05/22 02:35:07;;;;;;;1.38;0.85;;;;;;;;;;1022939;28;20038;-77
2023/05/22 02:35:38;;;;;;;1.45;1.35;;;;;;;;;;1023729;28;20386;-78
2023/05/22 02:36:09;;;;;;;2.63;1.50;;;;;;;;;;1025278;28;20042;-78
2023/05/22 02:36:40;;;;;;;0.68;0.60;;;;;;;;;;1028251;28;20131;-77
2023/05/22 02:37:12;;;;;;;1.27;0.55;;;;;;;;;;1026793;28;20022;-77
2023/05/22 02:37:42;;;;;;;0.68;0.68;;;;;;;;;;1023121;28;20502;-77
2023/05/22 02:38:12;;;;;;;0.10;0.10;;;;;;;;;;1020882;28;20114;-78
2023/05/22 02:38:43;;;;;;;0.77;0.75;;;;;;;;;;1021866;28;20497;-78
2023/05/22 02:39:14;;;;;;;0.77;0.75;;;;;;;;;;1027921;28;20022;-77
2023/05/22 02:39:44;;;;;;;0.80;0.63;;;;;;;;;;1024600;28;20552;-78
2023/05/22 02:40:15;;;;;;;1.05;0.77;;;;;;;;;;1024563;28;20707;-78
2023/05/22 02:40:45;;;;;;;1.02;0.55;;;;;;;;;;1023954;28;20608;-78
2023/05/22 02:41:17;;;;;;;0.30;0.30;;;;;;;;;;1024832;28;20362;-78
2023/05/22 02:41:47;;;;;;;6.32;0.88;;;;;;;;;;1025377;28;20054;-78
2023/05/22 02:42:17;;;;;;;0.52;0.52;;;;;;;;;;1026836;28;20510;-78
2023/05/22 02:42:48;;;;;;;1.92;1.63;;;;;;;;;;1025321;28;20093;-78
2023/05/22 02:43:18;;;;;;;0.57;0.57;;;;;;;;;;1026453;28;20045;-77
2023/05/22 02:43:49;;;;;;;0.98;0.98;;;;;;;;;;1023816;28;20416;-77
2023/05/22 02:44:19;;;;;;;1.90;1.23;;;;;;;;;;1021446;28;20042;-77
2023/05/22 02:44:50;;;;;;;0.80;0.70;;;;;;;;;;1020784;28;20049;-77
2023/05/22 02:45:21;;;;;;;0.63;0.45;;;;;;;;;;1023136;28;20041;-77
2023/05/22 02:45:51;;;;;;;0.88;0.63;;;;;;;;;;1019486;28;20585;-78
2023/05/22 02:46:22;;;;;;;0.10;0.10;;;;;;;;;;1024295;28;20027;-78
2023/05/22 02:46:53;;;;;;;1.45;1.27;;;;;;;;;;1019675;28;20411;-77
2023/05/22 02:47:23;;;;;;;0.35;0.35;;;;;;;;;;1018142;28;20417;-76
2023/05/22 02:47:54;;;;;;;0.95;0.95;;;;;;;;;;1021394;28;20058;-77
2023/05/22 02:48:24;;;;;;;1.45;1.00;;;;;;;;;;1022948;28;20031;-76
2023/05/22 02:48:55;;;;;;;0.20;0.20;;;;;;;;;;1024922;28;20049;-76
2023/05/22 02:49:25;;;;;;;1.27;0.98;;;;;;;;;;1024448;28;20533;-77
2023/05/22 02:49:58;;;;;;;0.10;0.10;;;;;;;;;;1023471;28;20023;-77
2023/05/22 02:50:28;;;;;;;0.30;0.30;;;;;;;;;;1022730;28;20041;-77
2023/05/22 02:50:59;;;;;;;0.30;0.30;;;;;;;;;;1023498;28;20106;-76
2023/05/22 02:51:29;;;;;;;0.32;0.32;;;;;;;;;;1025349;28;20568;-77
2023/05/22 02:52:00;;;;;;;0.52;0.30;;;;;;;;;;1023238;28;20042;-76
2023/05/22 02:52:30;;;;;;;0.32;0.32;;;;;;;;;;1023428;28;20057;-76
2023/05/22 02:53:01;;;;;;;0.30;0.30;;;;;;;;;;1024838;28;20066;-76
2023/05/22 02:53:34;;;;;;;1.55;1.45;;;;;;;;;;1026901;28;20033;-77
2023/05/22 02:54:04;;;;;;;1.17;0.40;;;;;;;;;;1028748;28;20034;-76
2023/05/22 02:54:35;;;;;;;1.30;1.00;;;;;;;;;;1027122;28;21261;-75
2023/05/22 02:55:07;;;;;;;0.35;0.35;;;;;;;;;;1030511;28;20033;-76
2023/05/22 02:55:37;;;;;;;2.83;0.60;;;;;;;;;;1024071;28;20547;-76
2023/05/22 02:56:09;;;;;;;1.55;1.45;;;;;;;;;;1027335;28;20027;-76
2023/05/22 02:56:40;;;;;;;0.55;0.40;;;;;;;;;;1021087;28;20023;-76
2023/05/22 02:57:10;;;;;;;0.35;0.35;;;;;;;;;;1025387;28;20057;-76
2023/05/22 02:57:41;;;;;;;1.63;0.65;;;;;;;;;;1028912;28;20026;-79
2023/05/22 02:58:12;;;;;;;1.30;1.08;;;;;;;;;;1024723;28;20071;-76
2023/05/22 02:58:42;;;;;;;0.00;0.00;;;;;;;;;;1025733;28;20069;-77
2023/05/22 02:59:13;;;;;;;2.67;1.05;;;;;;;;;;1028522;28;20124;-76
2023/05/22 02:59:44;;;;;;;0.10;0.10;;;;;;;;;;1026871;28;20034;-78
2023/05/22 03:00:15;;;;;;;0.73;0.70;;;;;;;;;;1025137;28;20037;-78
2023/05/22 03:00:46;;;;;;;0.05;0.05;;;;;;;;;;1022706;28;20030;-78
2023/05/22 03:01:17;;;;;;;0.10;0.10;;;;;;;;;;1019506;29;20032;-77
2023/05/22 03:01:48;;;;;;;0.10;0.10;;;;;;;;;;1014498;29;20079;-77
2023/05/22 03:02:18;;;;;;;0.00;0.00;;;;;;;;;;1019966;29;20175;-79
2023/05/22 03:02:49;;;;;;;1.20;0.38;;;;;;;;;;1022999;28;20030;-76
2023/05/22 03:03:19;;;;;;;0.30;0.30;;;;;;;;;;1027319;28;20050;-77
2023/05/22 03:03:50;;;;;;;0.20;0.20;;;;;;;;;;1024895;28;20089;-76
2023/05/22 03:04:21;;;;;;;0.73;0.73;;;;;;;;;;1024777;28;20503;-77
2023/05/22 03:04:51;;;;;;;0.65;0.60;;;;;;;;;;1026855;28;20031;-77
2023/05/22 03:05:22;;;;;;;0.17;0.17;;;;;;;;;;1021980;28;20062;-76
2023/05/22 03:05:57;;;;;;;0.20;0.20;;;;;;;;;;1023488;28;20030;-76
2023/05/22 03:06:28;;;;;;;0.17;0.17;;;;;;;;;;1020778;28;20019;-76
2023/05/22 03:07:00;;;;;;;0.63;0.28;;;;;;;;;;1026190;28;20065;-77
2023/05/22 03:07:31;;;;;;;1.10;0.75;;;;;;;;;;1020985;28;20400;-77
2023/05/22 03:08:01;;;;;;;0.20;0.20;;;;;;;;;;1019002;29;20027;-77
2023/05/22 03:08:33;;;;;;;1.55;1.17;;;;;;;;;;1020253;28;20035;-77
2023/05/22 03:09:03;;;;;;;2.08;1.50;;;;;;;;;;1018141;29;20035;-77
2023/05/22 03:09:34;;;;;;;0.20;0.20;;;;;;;;;;1022731;28;20026;-77
2023/05/22 03:10:04;;;;;;;0.98;0.47;;;;;;;;;;1025784;28;20573;-77
2023/05/22 03:10:35;;;;;;;1.08;0.85;;;;;;;;;;1022827;28;20114;-77
2023/05/22 03:11:05;;;;;;;0.08;0.08;;;;;;;;;;1023902;28;20497;-77
2023/05/22 03:11:36;;;;;;;0.30;0.30;;;;;;;;;;1026565;28;20482;-77
2023/05/22 03:12:11;;;;;;;1.90;1.25;;;;;;;;;;1023429;28;20636;-76
2023/05/22 03:12:42;;;;;;;0.35;0.35;;;;;;;;;;1023900;28;20125;-77
2023/05/22 03:13:12;;;;;;;0.20;0.20;;;;;;;;;;1027460;28;20038;-77